sensor_id;sensor_type;location;lat;lon;timestamp;P1;durP1;ratioP1;P2;durP2;ratioP2
61413;SDS011;47279;52.426;10.488;2022-11-15T00:01:58;5.40;;;4.90;;
61413;SDS011;47279;52.426;10.488;2022-11-15T00:04:24;5.63;;;5.07;;
61413;SDS011;47279;52.426;10.488;2022-11-15T00:06:50;6.60;;;5.40;;
61413;SDS011;47279;52.426;10.488;2022-11-15T00:09:15;5.63;;;5.13;;
61413;SDS011;47279;52.426;10.488;2022-11-15T00:11:41;7.05;;;5.78;;
61413;SDS011;47279;52.426;10.488;2022-11-15T00:14:07;8.10;;;5.50;;
61413;SDS011;47279;52.426;10.488;2022-11-15T00:16:33;5.70;;;5.20;;
61413;SDS011;47279;52.426;10.488;2022-11-15T00:18:59;4.63;;;4.22;;
61413;SDS011;47279;52.426;10.488;2022-11-15T00:21:25;5.32;;;4.82;;
61413;SDS011;47279;52.426;10.488;2022-11-15T00:23:52;5.85;;;5.20;;
61413;SDS011;47279;52.426;10.488;2022-11-15T00:26:18;5.75;;;5.03;;
61413;SDS011;47279;52.426;10.488;2022-11-15T00:28:44;5.50;;;5.00;;
61413;SDS011;47279;52.426;10.488;2022-11-15T00:31:11;5.47;;;4.97;;
61413;SDS011;47279;52.426;10.488;2022-11-15T00:33:38;6.18;;;5.57;;
61413;SDS011;47279;52.426;10.488;2022-11-15T00:36:07;5.93;;;5.32;;
61413;SDS011;47279;52.426;10.488;2022-11-15T00:38:37;5.78;;;5.22;;
61413;SDS011;47279;52.426;10.488;2022-11-15T00:41:04;5.40;;;4.90;;
61413;SDS011;47279;52.426;10.488;2022-11-15T00:43:31;5.57;;;5.07;;
61413;SDS011;47279;52.426;10.488;2022-11-15T00:45:57;5.30;;;4.80;;
61413;SDS011;47279;52.426;10.488;2022-11-15T00:48:23;5.55;;;5.05;;
61413;SDS011;47279;52.426;10.488;2022-11-15T00:50:49;5.18;;;4.68;;
61413;SDS011;47279;52.426;10.488;2022-11-15T00:53:16;5.22;;;4.72;;
61413;SDS011;47279;52.426;10.488;2022-11-15T00:55:42;5.30;;;4.80;;
61413;SDS011;47279;52.426;10.488;2022-11-15T00:58:08;5.47;;;4.97;;
61413;SDS011;47279;52.426;10.488;2022-11-15T01:00:34;5.25;;;4.75;;
61413;SDS011;47279;52.426;10.488;2022-11-15T01:03:00;5.43;;;4.80;;
61413;SDS011;47279;52.426;10.488;2022-11-15T01:05:27;5.38;;;4.90;;
61413;SDS011;47279;52.426;10.488;2022-11-15T01:07:53;5.47;;;4.97;;
61413;SDS011;47279;52.426;10.488;2022-11-15T01:10:19;4.97;;;4.57;;
61413;SDS011;47279;52.426;10.488;2022-11-15T01:12:45;5.40;;;4.90;;
61413;SDS011;47279;52.426;10.488;2022-11-15T01:15:11;5.18;;;4.55;;
61413;SDS011;47279;52.426;10.488;2022-11-15T01:17:37;5.45;;;4.95;;
61413;SDS011;47279;52.426;10.488;2022-11-15T01:20:04;5.38;;;4.88;;
61413;SDS011;47279;52.426;10.488;2022-11-15T01:22:30;5.40;;;4.90;;
61413;SDS011;47279;52.426;10.488;2022-11-15T01:24:56;5.90;;;5.30;;
61413;SDS011;47279;52.426;10.488;2022-11-15T01:27:22;5.03;;;4.53;;
61413;SDS011;47279;52.426;10.488;2022-11-15T01:29:48;5.28;;;4.68;;
61413;SDS011;47279;52.426;10.488;2022-11-15T01:32:14;5.13;;;4.63;;
61413;SDS011;47279;52.426;10.488;2022-11-15T01:34:40;5.00;;;4.53;;
61413;SDS011;47279;52.426;10.488;2022-11-15T01:37:06;5.25;;;4.75;;
61413;SDS011;47279;52.426;10.488;2022-11-15T01:39:32;4.80;;;4.40;;
61413;SDS011;47279;52.426;10.488;2022-11-15T01:41:58;5.15;;;4.63;;
61413;SDS011;47279;52.426;10.488;2022-11-15T01:46:56;5.40;;;4.90;;
61413;SDS011;47279;52.426;10.488;2022-11-15T01:49:23;5.00;;;4.50;;
61413;SDS011;47279;52.426;10.488;2022-11-15T01:51:49;5.20;;;4.70;;
61413;SDS011;47279;52.426;10.488;2022-11-15T01:54:16;5.30;;;4.80;;
61413;SDS011;47279;52.426;10.488;2022-11-15T01:56:44;4.70;;;4.30;;
61413;SDS011;47279;52.426;10.488;2022-11-15T01:59:12;5.38;;;4.88;;
61413;SDS011;47279;52.426;10.488;2022-11-15T02:01:38;4.50;;;4.07;;
61413;SDS011;47279;52.426;10.488;2022-11-15T02:04:15;5.47;;;4.97;;
61413;SDS011;47279;52.426;10.488;2022-11-15T02:06:42;5.20;;;4.70;;
61413;SDS011;47279;52.426;10.488;2022-11-15T02:09:08;5.20;;;4.53;;
61413;SDS011;47279;52.426;10.488;2022-11-15T02:11:35;4.80;;;4.40;;
61413;SDS011;47279;52.426;10.488;2022-11-15T02:14:01;5.35;;;4.85;;
61413;SDS011;47279;52.426;10.488;2022-11-15T02:19:07;4.97;;;4.47;;
61413;SDS011;47279;52.426;10.488;2022-11-15T02:21:44;5.38;;;4.88;;
61413;SDS011;47279;52.426;10.488;2022-11-15T02:31:36;4.72;;;4.32;;
61413;SDS011;47279;52.426;10.488;2022-11-15T02:38:59;5.20;;;4.70;;
61413;SDS011;47279;52.426;10.488;2022-11-15T02:41:30;5.55;;;4.90;;
61413;SDS011;47279;52.426;10.488;2022-11-15T02:43:59;5.07;;;4.57;;
61413;SDS011;47279;52.426;10.488;2022-11-15T02:49:14;5.20;;;4.70;;
61413;SDS011;47279;52.426;10.488;2022-11-15T02:51:40;5.15;;;4.43;;
61413;SDS011;47279;52.426;10.488;2022-11-15T02:54:10;4.80;;;4.30;;
61413;SDS011;47279;52.426;10.488;2022-11-15T02:56:36;4.68;;;4.28;;
61413;SDS011;47279;52.426;10.488;2022-11-15T03:01:50;5.22;;;4.72;;
61413;SDS011;47279;52.426;10.488;2022-11-15T03:04:23;5.00;;;4.50;;
61413;SDS011;47279;52.426;10.488;2022-11-15T03:06:53;4.85;;;4.45;;
61413;SDS011;47279;52.426;10.488;2022-11-15T03:11:56;5.43;;;4.93;;
61413;SDS011;47279;52.426;10.488;2022-11-15T03:14:42;5.18;;;4.70;;
61413;SDS011;47279;52.426;10.488;2022-11-15T03:20:10;5.28;;;4.80;;
61413;SDS011;47279;52.426;10.488;2022-11-15T03:22:39;5.03;;;4.53;;
61413;SDS011;47279;52.426;10.488;2022-11-15T03:25:06;4.82;;;4.32;;
61413;SDS011;47279;52.426;10.488;2022-11-15T03:27:35;4.45;;;4.05;;
61413;SDS011;47279;52.426;10.488;2022-11-15T03:30:03;4.97;;;4.18;;
61413;SDS011;47279;52.426;10.488;2022-11-15T03:32:30;4.68;;;4.28;;
61413;SDS011;47279;52.426;10.488;2022-11-15T03:35:01;4.65;;;4.25;;
61413;SDS011;47279;52.426;10.488;2022-11-15T03:40:00;4.97;;;4.47;;
61413;SDS011;47279;52.426;10.488;2022-11-15T03:42:28;4.70;;;4.30;;
61413;SDS011;47279;52.426;10.488;2022-11-15T03:45:02;4.88;;;4.40;;
61413;SDS011;47279;52.426;10.488;2022-11-15T03:48:05;4.95;;;4.55;;
61413;SDS011;47279;52.426;10.488;2022-11-15T03:50:21;5.13;;;4.50;;
61413;SDS011;47279;52.426;10.488;2022-11-15T03:52:48;5.22;;;4.78;;
61413;SDS011;47279;52.426;10.488;2022-11-15T03:55:17;4.97;;;4.32;;
61413;SDS011;47279;52.426;10.488;2022-11-15T03:57:44;5.00;;;4.50;;
61413;SDS011;47279;52.426;10.488;2022-11-15T04:00:10;4.50;;;4.03;;
61413;SDS011;47279;52.426;10.488;2022-11-15T04:02:36;4.57;;;4.18;;
61413;SDS011;47279;52.426;10.488;2022-11-15T04:05:02;5.10;;;4.60;;
61413;SDS011;47279;52.426;10.488;2022-11-15T04:07:28;4.50;;;4.10;;
61413;SDS011;47279;52.426;10.488;2022-11-15T04:09:54;5.20;;;4.68;;
61413;SDS011;47279;52.426;10.488;2022-11-15T04:12:27;4.75;;;4.35;;
61413;SDS011;47279;52.426;10.488;2022-11-15T04:14:59;5.00;;;4.57;;
61413;SDS011;47279;52.426;10.488;2022-11-15T04:17:42;4.57;;;4.05;;
61413;SDS011;47279;52.426;10.488;2022-11-15T04:20:27;5.07;;;4.57;;
61413;SDS011;47279;52.426;10.488;2022-11-15T04:23:22;4.57;;;4.18;;
61413;SDS011;47279;52.426;10.488;2022-11-15T04:26:17;5.03;;;4.53;;
61413;SDS011;47279;52.426;10.488;2022-11-15T04:28:44;4.93;;;4.15;;
61413;SDS011;47279;52.426;10.488;2022-11-15T04:31:28;4.88;;;4.38;;
61413;SDS011;47279;52.426;10.488;2022-11-15T04:33:54;4.25;;;3.85;;
61413;SDS011;47279;52.426;10.488;2022-11-15T04:36:20;5.63;;;5.13;;
61413;SDS011;47279;52.426;10.488;2022-11-15T04:39:05;4.70;;;4.28;;
61413;SDS011;47279;52.426;10.488;2022-11-15T04:41:31;4.90;;;4.40;;
61413;SDS011;47279;52.426;10.488;2022-11-15T04:43:57;4.55;;;4.15;;
61413;SDS011;47279;52.426;10.488;2022-11-15T04:46:23;4.55;;;4.15;;
61413;SDS011;47279;52.426;10.488;2022-11-15T04:48:50;4.82;;;4.32;;
61413;SDS011;47279;52.426;10.488;2022-11-15T04:51:16;4.65;;;4.25;;
61413;SDS011;47279;52.426;10.488;2022-11-15T04:53:42;5.22;;;4.72;;
61413;SDS011;47279;52.426;10.488;2022-11-15T04:56:08;4.68;;;4.28;;
61413;SDS011;47279;52.426;10.488;2022-11-15T04:58:34;4.80;;;4.35;;
61413;SDS011;47279;52.426;10.488;2022-11-15T05:01:07;4.60;;;4.20;;
61413;SDS011;47279;52.426;10.488;2022-11-15T05:03:33;4.45;;;4.00;;
61413;SDS011;47279;52.426;10.488;2022-11-15T05:06:17;4.65;;;4.25;;
61413;SDS011;47279;52.426;10.488;2022-11-15T05:08:43;4.93;;;4.53;;
61413;SDS011;47279;52.426;10.488;2022-11-15T05:11:09;5.03;;;4.18;;
61413;SDS011;47279;52.426;10.488;2022-11-15T05:13:35;4.70;;;4.30;;
61413;SDS011;47279;52.426;10.488;2022-11-15T05:16:01;4.63;;;4.22;;
61413;SDS011;47279;52.426;10.488;2022-11-15T05:18:27;4.53;;;4.10;;
61413;SDS011;47279;52.426;10.488;2022-11-15T05:20:53;4.18;;;3.78;;
61413;SDS011;47279;52.426;10.488;2022-11-15T05:23:19;4.60;;;4.20;;
61413;SDS011;47279;52.426;10.488;2022-11-15T05:25:45;4.50;;;4.10;;
61413;SDS011;47279;52.426;10.488;2022-11-15T05:28:12;4.63;;;4.22;;
61413;SDS011;47279;52.426;10.488;2022-11-15T05:30:38;4.47;;;4.07;;
61413;SDS011;47279;52.426;10.488;2022-11-15T05:33:04;4.50;;;4.10;;
61413;SDS011;47279;52.426;10.488;2022-11-15T05:35:31;3.78;;;3.35;;
61413;SDS011;47279;52.426;10.488;2022-11-15T05:37:59;4.35;;;3.95;;
61413;SDS011;47279;52.426;10.488;2022-11-15T05:40:26;4.50;;;4.10;;
61413;SDS011;47279;52.426;10.488;2022-11-15T05:42:52;4.60;;;4.20;;
61413;SDS011;47279;52.426;10.488;2022-11-15T05:45:18;4.85;;;4.35;;
61413;SDS011;47279;52.426;10.488;2022-11-15T05:47:45;4.28;;;3.90;;
61413;SDS011;47279;52.426;10.488;2022-11-15T05:50:12;4.30;;;3.90;;
61413;SDS011;47279;52.426;10.488;2022-11-15T05:52:40;4.28;;;3.88;;
61413;SDS011;47279;52.426;10.488;2022-11-15T05:55:06;4.20;;;3.80;;
61413;SDS011;47279;52.426;10.488;2022-11-15T05:57:33;4.50;;;4.10;;
61413;SDS011;47279;52.426;10.488;2022-11-15T05:59:59;4.78;;;4.25;;
61413;SDS011;47279;52.426;10.488;2022-11-15T06:02:25;4.47;;;4.07;;
61413;SDS011;47279;52.426;10.488;2022-11-15T06:04:51;4.18;;;3.78;;
61413;SDS011;47279;52.426;10.488;2022-11-15T06:07:17;4.47;;;4.07;;
61413;SDS011;47279;52.426;10.488;2022-11-15T06:09:43;4.07;;;3.67;;
61413;SDS011;47279;52.426;10.488;2022-11-15T06:12:09;3.92;;;3.53;;
61413;SDS011;47279;52.426;10.488;2022-11-15T06:14:35;4.40;;;4.00;;
61413;SDS011;47279;52.426;10.488;2022-11-15T06:17:00;4.20;;;3.80;;
61413;SDS011;47279;52.426;10.488;2022-11-15T06:19:27;4.53;;;4.13;;
61413;SDS011;47279;52.426;10.488;2022-11-15T06:21:57;4.43;;;3.90;;
61413;SDS011;47279;52.426;10.488;2022-11-15T06:24:23;4.28;;;3.88;;
61413;SDS011;47279;52.426;10.488;2022-11-15T06:26:49;4.30;;;3.90;;
61413;SDS011;47279;52.426;10.488;2022-11-15T06:29:15;4.55;;;3.95;;
61413;SDS011;47279;52.426;10.488;2022-11-15T06:31:41;4.00;;;3.60;;
61413;SDS011;47279;52.426;10.488;2022-11-15T06:34:07;4.15;;;3.75;;
61413;SDS011;47279;52.426;10.488;2022-11-15T06:36:36;4.75;;;3.92;;
61413;SDS011;47279;52.426;10.488;2022-11-15T06:39:03;3.90;;;3.60;;
61413;SDS011;47279;52.426;10.488;2022-11-15T06:41:29;4.05;;;3.65;;
61413;SDS011;47279;52.426;10.488;2022-11-15T06:43:56;4.18;;;3.70;;
61413;SDS011;47279;52.426;10.488;2022-11-15T06:46:22;4.03;;;3.63;;
61413;SDS011;47279;52.426;10.488;2022-11-15T06:48:50;4.32;;;3.92;;
61413;SDS011;47279;52.426;10.488;2022-11-15T06:51:16;4.07;;;3.67;;
61413;SDS011;47279;52.426;10.488;2022-11-15T06:53:42;4.15;;;3.72;;
61413;SDS011;47279;52.426;10.488;2022-11-15T06:56:08;4.28;;;3.88;;
61413;SDS011;47279;52.426;10.488;2022-11-15T06:58:34;4.22;;;3.83;;
61413;SDS011;47279;52.426;10.488;2022-11-15T07:01:05;3.40;;;3.10;;
61413;SDS011;47279;52.426;10.488;2022-11-15T07:03:31;3.78;;;3.47;;
61413;SDS011;47279;52.426;10.488;2022-11-15T07:05:57;4.80;;;3.60;;
61413;SDS011;47279;52.426;10.488;2022-11-15T07:08:24;4.55;;;4.15;;
61413;SDS011;47279;52.426;10.488;2022-11-15T07:10:52;4.53;;;4.13;;
61413;SDS011;47279;52.426;10.488;2022-11-15T07:13:18;4.50;;;4.10;;
61413;SDS011;47279;52.426;10.488;2022-11-15T07:15:44;4.00;;;3.60;;
61413;SDS011;47279;52.426;10.488;2022-11-15T07:18:10;4.00;;;3.60;;
61413;SDS011;47279;52.426;10.488;2022-11-15T07:20:36;4.40;;;4.00;;
61413;SDS011;47279;52.426;10.488;2022-11-15T07:23:02;4.20;;;3.80;;
61413;SDS011;47279;52.426;10.488;2022-11-15T07:25:29;5.25;;;3.70;;
61413;SDS011;47279;52.426;10.488;2022-11-15T07:27:55;4.22;;;3.70;;
61413;SDS011;47279;52.426;10.488;2022-11-15T07:30:21;4.47;;;4.07;;
61413;SDS011;47279;52.426;10.488;2022-11-15T07:32:47;3.50;;;3.20;;
61413;SDS011;47279;52.426;10.488;2022-11-15T07:35:13;4.65;;;3.60;;
61413;SDS011;47279;52.426;10.488;2022-11-15T07:37:39;4.30;;;3.60;;
61413;SDS011;47279;52.426;10.488;2022-11-15T07:40:05;4.50;;;4.10;;
61413;SDS011;47279;52.426;10.488;2022-11-15T07:42:31;5.07;;;4.00;;
61413;SDS011;47279;52.426;10.488;2022-11-15T07:45:16;4.10;;;3.40;;
61413;SDS011;47279;52.426;10.488;2022-11-15T07:47:44;4.15;;;3.75;;
61413;SDS011;47279;52.426;10.488;2022-11-15T07:50:10;4.20;;;3.63;;
61413;SDS011;47279;52.426;10.488;2022-11-15T07:52:36;4.00;;;3.60;;
61413;SDS011;47279;52.426;10.488;2022-11-15T07:55:03;3.45;;;3.15;;
61413;SDS011;47279;52.426;10.488;2022-11-15T07:57:29;3.88;;;3.40;;
61413;SDS011;47279;52.426;10.488;2022-11-15T07:59:55;3.47;;;3.03;;
61413;SDS011;47279;52.426;10.488;2022-11-15T08:02:21;3.65;;;3.25;;
61413;SDS011;47279;52.426;10.488;2022-11-15T08:04:47;3.63;;;3.33;;
61413;SDS011;47279;52.426;10.488;2022-11-15T08:07:13;4.05;;;3.65;;
61413;SDS011;47279;52.426;10.488;2022-11-15T08:09:39;3.80;;;3.50;;
61413;SDS011;47279;52.426;10.488;2022-11-15T08:12:05;3.92;;;3.35;;
61413;SDS011;47279;52.426;10.488;2022-11-15T08:14:31;3.60;;;3.30;;
61413;SDS011;47279;52.426;10.488;2022-11-15T08:16:57;3.58;;;3.20;;
61413;SDS011;47279;52.426;10.488;2022-11-15T08:19:23;3.58;;;3.10;;
61413;SDS011;47279;52.426;10.488;2022-11-15T08:21:49;4.45;;;3.42;;
61413;SDS011;47279;52.426;10.488;2022-11-15T08:24:15;3.80;;;3.40;;
61413;SDS011;47279;52.426;10.488;2022-11-15T08:26:41;3.53;;;3.22;;
61413;SDS011;47279;52.426;10.488;2022-11-15T08:29:07;4.20;;;3.22;;
61413;SDS011;47279;52.426;10.488;2022-11-15T08:31:34;3.53;;;3.22;;
61413;SDS011;47279;52.426;10.488;2022-11-15T08:34:01;3.85;;;3.53;;
61413;SDS011;47279;52.426;10.488;2022-11-15T08:36:27;3.13;;;2.83;;
61413;SDS011;47279;52.426;10.488;2022-11-15T08:38:53;3.90;;;3.30;;
61413;SDS011;47279;52.426;10.488;2022-11-15T08:41:23;3.38;;;3.05;;
61413;SDS011;47279;52.426;10.488;2022-11-15T08:43:50;3.40;;;3.10;;
61413;SDS011;47279;52.426;10.488;2022-11-15T08:46:16;3.30;;;3.00;;
61413;SDS011;47279;52.426;10.488;2022-11-15T08:48:43;3.78;;;3.10;;
61413;SDS011;47279;52.426;10.488;2022-11-15T08:51:09;3.38;;;3.05;;
61413;SDS011;47279;52.426;10.488;2022-11-15T08:53:35;3.50;;;3.20;;
61413;SDS011;47279;52.426;10.488;2022-11-15T08:56:01;3.60;;;3.10;;
61413;SDS011;47279;52.426;10.488;2022-11-15T08:58:27;3.63;;;3.30;;
61413;SDS011;47279;52.426;10.488;2022-11-15T09:00:53;3.30;;;2.88;;
61413;SDS011;47279;52.426;10.488;2022-11-15T09:03:19;3.40;;;3.10;;
61413;SDS011;47279;52.426;10.488;2022-11-15T09:05:45;3.25;;;2.95;;
61413;SDS011;47279;52.426;10.488;2022-11-15T09:08:11;3.38;;;3.08;;
61413;SDS011;47279;52.426;10.488;2022-11-15T09:10:38;3.38;;;3.05;;
61413;SDS011;47279;52.426;10.488;2022-11-15T09:13:04;3.13;;;2.83;;
61413;SDS011;47279;52.426;10.488;2022-11-15T09:15:29;3.00;;;2.80;;
61413;SDS011;47279;52.426;10.488;2022-11-15T09:17:58;3.65;;;3.22;;
61413;SDS011;47279;52.426;10.488;2022-11-15T09:20:24;3.03;;;2.80;;
61413;SDS011;47279;52.426;10.488;2022-11-15T09:22:50;3.10;;;2.80;;
61413;SDS011;47279;52.426;10.488;2022-11-15T09:25:16;3.30;;;3.00;;
61413;SDS011;47279;52.426;10.488;2022-11-15T09:27:42;3.28;;;2.97;;
61413;SDS011;47279;52.426;10.488;2022-11-15T09:30:08;3.30;;;3.00;;
61413;SDS011;47279;52.426;10.488;2022-11-15T09:32:34;2.80;;;2.60;;
61413;SDS011;47279;52.426;10.488;2022-11-15T09:35:00;3.25;;;2.95;;
61413;SDS011;47279;52.426;10.488;2022-11-15T09:37:26;2.85;;;2.65;;
61413;SDS011;47279;52.426;10.488;2022-11-15T09:39:52;3.42;;;2.67;;
61413;SDS011;47279;52.426;10.488;2022-11-15T09:45:04;3.15;;;2.85;;
61413;SDS011;47279;52.426;10.488;2022-11-15T09:49:59;3.05;;;2.83;;
61413;SDS011;47279;52.426;10.488;2022-11-15T09:52:27;3.22;;;2.92;;
61413;SDS011;47279;52.426;10.488;2022-11-15T09:54:53;3.15;;;2.65;;
61413;SDS011;47279;52.426;10.488;2022-11-15T10:05:24;3.33;;;2.58;;
61413;SDS011;47279;52.426;10.488;2022-11-15T10:07:59;3.22;;;2.90;;
61413;SDS011;47279;52.426;10.488;2022-11-15T10:10:43;3.05;;;2.75;;
61413;SDS011;47279;52.426;10.488;2022-11-15T10:13:13;3.13;;;2.75;;
61413;SDS011;47279;52.426;10.488;2022-11-15T10:15:40;2.67;;;2.47;;
61413;SDS011;47279;52.426;10.488;2022-11-15T10:20:37;2.80;;;2.60;;
61413;SDS011;47279;52.426;10.488;2022-11-15T10:23:06;2.63;;;2.42;;
61413;SDS011;47279;52.426;10.488;2022-11-15T10:25:35;3.03;;;2.70;;
61413;SDS011;47279;52.426;10.488;2022-11-15T10:28:09;2.80;;;2.25;;
61413;SDS011;47279;52.426;10.488;2022-11-15T10:30:37;2.92;;;2.20;;
61413;SDS011;47279;52.426;10.488;2022-11-15T10:35:48;2.63;;;2.42;;
61413;SDS011;47279;52.426;10.488;2022-11-15T10:38:14;2.75;;;2.35;;
61413;SDS011;47279;52.426;10.488;2022-11-15T10:40:40;2.40;;;2.20;;
61413;SDS011;47279;52.426;10.488;2022-11-15T10:45:34;2.92;;;2.70;;
61413;SDS011;47279;52.426;10.488;2022-11-15T10:50:39;3.08;;;2.60;;
61413;SDS011;47279;52.426;10.488;2022-11-15T10:53:17;2.92;;;2.63;;
61413;SDS011;47279;52.426;10.488;2022-11-15T10:55:46;2.80;;;2.60;;
61413;SDS011;47279;52.426;10.488;2022-11-15T10:58:20;2.95;;;2.65;;
61413;SDS011;47279;52.426;10.488;2022-11-15T11:00:46;2.80;;;2.47;;
61413;SDS011;47279;52.426;10.488;2022-11-15T11:03:29;2.70;;;2.42;;
61413;SDS011;47279;52.426;10.488;2022-11-15T11:08:33;2.92;;;2.50;;
61413;SDS011;47279;52.426;10.488;2022-11-15T11:11:00;2.70;;;2.35;;
61413;SDS011;47279;52.426;10.488;2022-11-15T11:18:48;2.40;;;2.20;;
61413;SDS011;47279;52.426;10.488;2022-11-15T11:21:38;2.60;;;2.40;;
61413;SDS011;47279;52.426;10.488;2022-11-15T11:24:12;2.10;;;1.90;;
61413;SDS011;47279;52.426;10.488;2022-11-15T11:26:42;2.65;;;2.45;;
61413;SDS011;47279;52.426;10.488;2022-11-15T11:31:46;2.72;;;2.42;;
61413;SDS011;47279;52.426;10.488;2022-11-15T11:36:53;2.33;;;2.13;;
61413;SDS011;47279;52.426;10.488;2022-11-15T11:39:24;2.47;;;2.28;;
61413;SDS011;47279;52.426;10.488;2022-11-15T11:44:58;2.25;;;2.00;;
61413;SDS011;47279;52.426;10.488;2022-11-15T11:47:22;2.50;;;2.28;;
61413;SDS011;47279;52.426;10.488;2022-11-15T11:49:50;2.70;;;2.40;;
61413;SDS011;47279;52.426;10.488;2022-11-15T11:54:55;2.42;;;2.22;;
61413;SDS011;47279;52.426;10.488;2022-11-15T11:57:44;2.53;;;2.33;;
61413;SDS011;47279;52.426;10.488;2022-11-15T12:02:41;2.58;;;2.38;;
61413;SDS011;47279;52.426;10.488;2022-11-15T12:05:10;2.75;;;2.25;;
61413;SDS011;47279;52.426;10.488;2022-11-15T12:07:37;2.47;;;2.28;;
61413;SDS011;47279;52.426;10.488;2022-11-15T12:13:19;2.53;;;2.33;;
61413;SDS011;47279;52.426;10.488;2022-11-15T12:15:27;2.33;;;2.13;;
61413;SDS011;47279;52.426;10.488;2022-11-15T12:17:55;2.70;;;2.50;;
61413;SDS011;47279;52.426;10.488;2022-11-15T12:20:23;2.97;;;2.60;;
61413;SDS011;47279;52.426;10.488;2022-11-15T12:22:52;2.25;;;2.05;;
61413;SDS011;47279;52.426;10.488;2022-11-15T12:28:02;2.70;;;2.20;;
61413;SDS011;47279;52.426;10.488;2022-11-15T12:30:53;2.75;;;2.10;;
61413;SDS011;47279;52.426;10.488;2022-11-15T12:33:28;2.47;;;2.28;;
61413;SDS011;47279;52.426;10.488;2022-11-15T12:35:59;2.40;;;2.20;;
61413;SDS011;47279;52.426;10.488;2022-11-15T12:41:13;2.33;;;2.13;;
61413;SDS011;47279;52.426;10.488;2022-11-15T12:46:10;2.20;;;2.00;;
61413;SDS011;47279;52.426;10.488;2022-11-15T12:51:02;2.30;;;2.10;;
61413;SDS011;47279;52.426;10.488;2022-11-15T12:53:30;2.30;;;2.10;;
61413;SDS011;47279;52.426;10.488;2022-11-15T12:58:51;2.35;;;2.15;;
61413;SDS011;47279;52.426;10.488;2022-11-15T13:06:44;1.98;;;1.83;;
61413;SDS011;47279;52.426;10.488;2022-11-15T13:11:55;2.65;;;2.45;;
61413;SDS011;47279;52.426;10.488;2022-11-15T13:17:12;2.72;;;2.00;;
61413;SDS011;47279;52.426;10.488;2022-11-15T13:19:42;2.45;;;2.25;;
61413;SDS011;47279;52.426;10.488;2022-11-15T13:22:09;2.65;;;2.40;;
61413;SDS011;47279;52.426;10.488;2022-11-15T13:24:54;2.58;;;2.38;;
61413;SDS011;47279;52.426;10.488;2022-11-15T13:27:20;2.40;;;2.20;;
61413;SDS011;47279;52.426;10.488;2022-11-15T13:29:46;2.28;;;2.05;;
61413;SDS011;47279;52.426;10.488;2022-11-15T13:32:13;2.10;;;1.90;;
61413;SDS011;47279;52.426;10.488;2022-11-15T13:34:42;2.63;;;2.25;;
61413;SDS011;47279;52.426;10.488;2022-11-15T13:39:46;2.30;;;2.10;;
61413;SDS011;47279;52.426;10.488;2022-11-15T13:42:16;2.55;;;2.30;;
61413;SDS011;47279;52.426;10.488;2022-11-15T13:44:55;1.95;;;1.85;;
61413;SDS011;47279;52.426;10.488;2022-11-15T13:47:21;2.30;;;2.10;;
61413;SDS011;47279;52.426;10.488;2022-11-15T13:49:47;2.50;;;2.20;;
61413;SDS011;47279;52.426;10.488;2022-11-15T13:52:14;2.00;;;1.90;;
61413;SDS011;47279;52.426;10.488;2022-11-15T13:54:56;2.30;;;2.10;;
61413;SDS011;47279;52.426;10.488;2022-11-15T13:57:24;2.17;;;2.00;;
61413;SDS011;47279;52.426;10.488;2022-11-15T13:59:53;2.20;;;2.00;;
61413;SDS011;47279;52.426;10.488;2022-11-15T14:02:27;2.40;;;2.00;;
61413;SDS011;47279;52.426;10.488;2022-11-15T14:07:25;2.22;;;2.03;;
61413;SDS011;47279;52.426;10.488;2022-11-15T14:09:52;2.63;;;2.42;;
61413;SDS011;47279;52.426;10.488;2022-11-15T14:14:54;1.98;;;1.80;;
61413;SDS011;47279;52.426;10.488;2022-11-15T14:17:41;2.13;;;1.92;;
61413;SDS011;47279;52.426;10.488;2022-11-15T14:20:19;1.90;;;1.80;;
61413;SDS011;47279;52.426;10.488;2022-11-15T14:22:55;1.90;;;1.70;;
61413;SDS011;47279;52.426;10.488;2022-11-15T14:25:22;2.20;;;2.00;;
61413;SDS011;47279;52.426;10.488;2022-11-15T14:30:33;1.85;;;1.73;;
61413;SDS011;47279;52.426;10.488;2022-11-15T14:32:59;2.28;;;2.00;;
61413;SDS011;47279;52.426;10.488;2022-11-15T14:35:25;2.13;;;1.92;;
61413;SDS011;47279;52.426;10.488;2022-11-15T14:37:51;2.20;;;2.00;;
61413;SDS011;47279;52.426;10.488;2022-11-15T14:40:21;2.00;;;1.88;;
61413;SDS011;47279;52.426;10.488;2022-11-15T14:45:17;2.20;;;2.00;;
61413;SDS011;47279;52.426;10.488;2022-11-15T14:47:44;1.88;;;1.77;;
61413;SDS011;47279;52.426;10.488;2022-11-15T14:50:11;2.08;;;1.88;;
61413;SDS011;47279;52.426;10.488;2022-11-15T14:52:37;2.17;;;1.98;;
61413;SDS011;47279;52.426;10.488;2022-11-15T14:55:08;2.53;;;2.33;;
61413;SDS011;47279;52.426;10.488;2022-11-15T14:57:35;2.00;;;1.80;;
61413;SDS011;47279;52.426;10.488;2022-11-15T15:00:02;2.25;;;2.05;;
61413;SDS011;47279;52.426;10.488;2022-11-15T15:02:28;2.22;;;2.03;;
61413;SDS011;47279;52.426;10.488;2022-11-15T15:04:54;2.53;;;2.17;;
61413;SDS011;47279;52.426;10.488;2022-11-15T15:07:20;2.25;;;2.05;;
61413;SDS011;47279;52.426;10.488;2022-11-15T15:09:46;2.20;;;2.00;;
61413;SDS011;47279;52.426;10.488;2022-11-15T15:12:21;2.10;;;1.92;;
61413;SDS011;47279;52.426;10.488;2022-11-15T15:14:49;2.15;;;1.92;;
61413;SDS011;47279;52.426;10.488;2022-11-15T15:17:15;2.30;;;2.10;;
61413;SDS011;47279;52.426;10.488;2022-11-15T15:19:41;2.28;;;2.08;;
61413;SDS011;47279;52.426;10.488;2022-11-15T15:22:14;2.15;;;1.95;;
61413;SDS011;47279;52.426;10.488;2022-11-15T15:24:41;2.42;;;2.22;;
61413;SDS011;47279;52.426;10.488;2022-11-15T15:27:07;2.35;;;2.15;;
61413;SDS011;47279;52.426;10.488;2022-11-15T15:29:33;2.03;;;1.88;;
61413;SDS011;47279;52.426;10.488;2022-11-15T15:31:59;1.98;;;1.85;;
61413;SDS011;47279;52.426;10.488;2022-11-15T15:34:25;2.17;;;1.98;;
61413;SDS011;47279;52.426;10.488;2022-11-15T15:39:53;2.35;;;2.15;;
61413;SDS011;47279;52.426;10.488;2022-11-15T15:42:19;2.40;;;2.20;;
61413;SDS011;47279;52.426;10.488;2022-11-15T15:44:46;2.03;;;1.83;;
61413;SDS011;47279;52.426;10.488;2022-11-15T15:47:13;2.13;;;1.92;;
61413;SDS011;47279;52.426;10.488;2022-11-15T15:49:40;2.08;;;1.92;;
61413;SDS011;47279;52.426;10.488;2022-11-15T15:52:06;3.17;;;1.80;;
61413;SDS011;47279;52.426;10.488;2022-11-15T15:54:32;2.15;;;1.95;;
61413;SDS011;47279;52.426;10.488;2022-11-15T15:56:58;1.92;;;1.63;;
61413;SDS011;47279;52.426;10.488;2022-11-15T15:59:24;2.03;;;1.83;;
61413;SDS011;47279;52.426;10.488;2022-11-15T16:01:50;2.10;;;1.90;;
61413;SDS011;47279;52.426;10.488;2022-11-15T16:04:16;2.20;;;2.00;;
61413;SDS011;47279;52.426;10.488;2022-11-15T16:06:42;2.17;;;1.88;;
61413;SDS011;47279;52.426;10.488;2022-11-15T16:09:13;1.85;;;1.75;;
61413;SDS011;47279;52.426;10.488;2022-11-15T16:14:06;2.20;;;2.00;;
61413;SDS011;47279;52.426;10.488;2022-11-15T16:16:32;2.00;;;1.80;;
61413;SDS011;47279;52.426;10.488;2022-11-15T16:18:59;2.08;;;1.90;;
61413;SDS011;47279;52.426;10.488;2022-11-15T16:21:25;2.10;;;1.95;;
61413;SDS011;47279;52.426;10.488;2022-11-15T16:23:51;2.10;;;1.90;;
61413;SDS011;47279;52.426;10.488;2022-11-15T16:26:20;6.60;;;2.60;;
61413;SDS011;47279;52.426;10.488;2022-11-15T16:28:46;3.80;;;2.63;;
61413;SDS011;47279;52.426;10.488;2022-11-15T16:31:12;7.43;;;3.08;;
61413;SDS011;47279;52.426;10.488;2022-11-15T16:33:38;12.43;;;2.88;;
61413;SDS011;47279;52.426;10.488;2022-11-15T16:36:12;7.32;;;2.40;;
61413;SDS011;47279;52.426;10.488;2022-11-15T16:38:40;60.58;;;7.07;;
61413;SDS011;47279;52.426;10.488;2022-11-15T16:41:05;19.48;;;4.10;;